sensor_id;sensor_type;location;lat;lon;timestamp;temperature;humidity
28520;DHT22;15732;48.534;20.382;2023-07-20T00:02:19;20.50;99.90
28520;DHT22;15732;48.534;20.382;2023-07-20T00:04:47;20.50;99.90
28520;DHT22;15732;48.534;20.382;2023-07-20T00:07:14;20.50;99.90
28520;DHT22;15732;48.534;20.382;2023-07-20T00:09:40;20.40;99.90
28520;DHT22;15732;48.534;20.382;2023-07-20T00:12:09;20.30;99.90
28520;DHT22;15732;48.534;20.382;2023-07-20T00:14:36;20.30;99.90
28520;DHT22;15732;48.534;20.382;2023-07-20T00:17:04;20.30;99.90
28520;DHT22;15732;48.534;20.382;2023-07-20T00:19:31;20.20;99.90
28520;DHT22;15732;48.534;20.382;2023-07-20T00:21:58;20.20;99.90
28520;DHT22;15732;48.534;20.382;2023-07-20T00:24:26;20.10;99.90
28520;DHT22;15732;48.534;20.382;2023-07-20T00:26:53;19.90;99.90
28520;DHT22;15732;48.534;20.382;2023-07-20T00:29:21;19.90;99.90
28520;DHT22;15732;48.534;20.382;2023-07-20T00:31:48;19.90;99.90
28520;DHT22;15732;48.534;20.382;2023-07-20T00:34:15;20.00;99.90
28520;DHT22;15732;48.534;20.382;2023-07-20T00:36:43;20.00;99.90
28520;DHT22;15732;48.534;20.382;2023-07-20T00:39:10;20.10;99.90
28520;DHT22;15732;48.534;20.382;2023-07-20T00:41:37;20.00;99.90
28520;DHT22;15732;48.534;20.382;2023-07-20T00:44:05;20.00;99.90
28520;DHT22;15732;48.534;20.382;2023-07-20T00:46:32;19.90;99.90
28520;DHT22;15732;48.534;20.382;2023-07-20T00:48:59;19.90;99.90
28520;DHT22;15732;48.534;20.382;2023-07-20T00:51:27;19.90;99.90
28520;DHT22;15732;48.534;20.382;2023-07-20T00:53:54;19.90;99.90
28520;DHT22;15732;48.534;20.382;2023-07-20T00:56:22;19.80;99.90
28520;DHT22;15732;48.534;20.382;2023-07-20T00:58:49;19.90;99.90
28520;DHT22;15732;48.534;20.382;2023-07-20T01:01:16;19.80;99.90
28520;DHT22;15732;48.534;20.382;2023-07-20T01:03:44;19.70;99.90
28520;DHT22;15732;48.534;20.382;2023-07-20T01:06:29;19.70;99.90
28520;DHT22;15732;48.534;20.382;2023-07-20T01:09:16;19.60;99.90
28520;DHT22;15732;48.534;20.382;2023-07-20T01:12:08;19.50;99.90
28520;DHT22;15732;48.534;20.382;2023-07-20T01:14:39;19.60;99.90
28520;DHT22;15732;48.534;20.382;2023-07-20T01:17:06;19.60;99.90
28520;DHT22;15732;48.534;20.382;2023-07-20T01:19:34;19.70;99.90
28520;DHT22;15732;48.534;20.382;2023-07-20T01:22:15;19.70;99.90
28520;DHT22;15732;48.534;20.382;2023-07-20T01:27:43;19.60;99.90
28520;DHT22;15732;48.534;20.382;2023-07-20T01:32:54;19.60;99.90
28520;DHT22;15732;48.534;20.382;2023-07-20T01:35:27;19.60;99.90
28520;DHT22;15732;48.534;20.382;2023-07-20T01:37:55;19.60;99.90
28520;DHT22;15732;48.534;20.382;2023-07-20T01:40:25;19.60;99.90
28520;DHT22;15732;48.534;20.382;2023-07-20T01:42:52;19.60;99.90
28520;DHT22;15732;48.534;20.382;2023-07-20T01:45:20;19.50;99.90
28520;DHT22;15732;48.534;20.382;2023-07-20T01:47:47;19.30;99.90
28520;DHT22;15732;48.534;20.382;2023-07-20T01:50:15;19.20;99.90
28520;DHT22;15732;48.534;20.382;2023-07-20T01:52:42;19.30;99.90
28520;DHT22;15732;48.534;20.382;2023-07-20T01:55:09;19.30;99.90
28520;DHT22;15732;48.534;20.382;2023-07-20T01:57:37;19.30;99.90
28520;DHT22;15732;48.534;20.382;2023-07-20T02:00:05;19.30;99.90
28520;DHT22;15732;48.534;20.382;2023-07-20T02:02:35;19.40;99.90
28520;DHT22;15732;48.534;20.382;2023-07-20T02:05:03;19.50;99.90
28520;DHT22;15732;48.534;20.382;2023-07-20T02:07:31;19.50;99.90
28520;DHT22;15732;48.534;20.382;2023-07-20T02:09:58;19.40;99.90
28520;DHT22;15732;48.534;20.382;2023-07-20T02:12:25;19.50;99.90
28520;DHT22;15732;48.534;20.382;2023-07-20T02:14:53;19.20;99.90
28520;DHT22;15732;48.534;20.382;2023-07-20T02:17:20;19.20;99.90
28520;DHT22;15732;48.534;20.382;2023-07-20T02:19:50;19.30;99.90
28520;DHT22;15732;48.534;20.382;2023-07-20T02:22:21;19.30;99.90
28520;DHT22;15732;48.534;20.382;2023-07-20T02:24:49;19.50;99.90
28520;DHT22;15732;48.534;20.382;2023-07-20T02:27:16;19.40;99.90
28520;DHT22;15732;48.534;20.382;2023-07-20T02:29:43;19.20;99.90
28520;DHT22;15732;48.534;20.382;2023-07-20T02:32:11;19.10;99.90
28520;DHT22;15732;48.534;20.382;2023-07-20T02:34:38;19.20;99.90
28520;DHT22;15732;48.534;20.382;2023-07-20T02:37:05;19.10;99.90
28520;DHT22;15732;48.534;20.382;2023-07-20T02:39:32;19.10;99.90
28520;DHT22;15732;48.534;20.382;2023-07-20T02:42:00;19.10;99.90
28520;DHT22;15732;48.534;20.382;2023-07-20T02:44:27;19.10;99.90
28520;DHT22;15732;48.534;20.382;2023-07-20T02:46:54;19.00;99.90
28520;DHT22;15732;48.534;20.382;2023-07-20T02:49:22;19.00;99.90
28520;DHT22;15732;48.534;20.382;2023-07-20T02:51:49;19.00;99.90
28520;DHT22;15732;48.534;20.382;2023-07-20T02:54:16;18.90;99.90
28520;DHT22;15732;48.534;20.382;2023-07-20T02:56:47;19.00;99.90
28520;DHT22;15732;48.534;20.382;2023-07-20T02:59:15;19.00;99.90
28520;DHT22;15732;48.534;20.382;2023-07-20T03:01:42;19.10;99.90
28520;DHT22;15732;48.534;20.382;2023-07-20T03:04:09;19.30;99.90
28520;DHT22;15732;48.534;20.382;2023-07-20T03:06:39;19.30;99.90
28520;DHT22;15732;48.534;20.382;2023-07-20T03:09:06;19.30;99.90
28520;DHT22;15732;48.534;20.382;2023-07-20T03:11:38;19.30;99.90
28520;DHT22;15732;48.534;20.382;2023-07-20T03:14:06;19.40;99.90
28520;DHT22;15732;48.534;20.382;2023-07-20T03:16:33;19.40;99.90
28520;DHT22;15732;48.534;20.382;2023-07-20T03:19:00;19.50;99.90
28520;DHT22;15732;48.534;20.382;2023-07-20T03:21:27;19.60;99.90
28520;DHT22;15732;48.534;20.382;2023-07-20T03:23:55;19.60;99.90
28520;DHT22;15732;48.534;20.382;2023-07-20T03:26:23;19.60;99.90
28520;DHT22;15732;48.534;20.382;2023-07-20T03:28:50;19.70;99.90
28520;DHT22;15732;48.534;20.382;2023-07-20T03:31:17;19.70;99.90
28520;DHT22;15732;48.534;20.382;2023-07-20T03:33:44;19.60;99.90
28520;DHT22;15732;48.534;20.382;2023-07-20T03:36:12;19.60;99.90
28520;DHT22;15732;48.534;20.382;2023-07-20T03:38:39;19.60;99.90
28520;DHT22;15732;48.534;20.382;2023-07-20T03:41:06;19.60;99.90
28520;DHT22;15732;48.534;20.382;2023-07-20T03:43:34;19.70;99.90
28520;DHT22;15732;48.534;20.382;2023-07-20T03:46:01;19.70;99.90
28520;DHT22;15732;48.534;20.382;2023-07-20T03:48:33;19.80;99.90
28520;DHT22;15732;48.534;20.382;2023-07-20T03:51:00;19.80;99.90
28520;DHT22;15732;48.534;20.382;2023-07-20T03:53:27;19.80;99.90
28520;DHT22;15732;48.534;20.382;2023-07-20T03:55:53;19.80;99.90
28520;DHT22;15732;48.534;20.382;2023-07-20T03:58:25;19.80;99.90
28520;DHT22;15732;48.534;20.382;2023-07-20T04:00:57;19.80;99.90
28520;DHT22;15732;48.534;20.382;2023-07-20T04:03:28;19.90;99.90
28520;DHT22;15732;48.534;20.382;2023-07-20T04:05:59;19.90;99.90
28520;DHT22;15732;48.534;20.382;2023-07-20T04:08:26;19.90;99.90
28520;DHT22;15732;48.534;20.382;2023-07-20T04:10:54;20.00;99.90
28520;DHT22;15732;48.534;20.382;2023-07-20T04:13:21;19.90;99.90
28520;DHT22;15732;48.534;20.382;2023-07-20T04:15:48;20.00;99.90
28520;DHT22;15732;48.534;20.382;2023-07-20T04:18:16;20.10;99.90
28520;DHT22;15732;48.534;20.382;2023-07-20T04:20:43;20.10;99.90
28520;DHT22;15732;48.534;20.382;2023-07-20T04:23:11;20.10;99.90
28520;DHT22;15732;48.534;20.382;2023-07-20T04:25:39;20.10;99.90
28520;DHT22;15732;48.534;20.382;2023-07-20T04:28:09;20.00;99.90
28520;DHT22;15732;48.534;20.382;2023-07-20T04:30:36;19.90;99.90
28520;DHT22;15732;48.534;20.382;2023-07-20T04:33:04;19.80;99.90
28520;DHT22;15732;48.534;20.382;2023-07-20T04:35:53;19.70;99.90
28520;DHT22;15732;48.534;20.382;2023-07-20T04:38:21;19.60;99.90
28520;DHT22;15732;48.534;20.382;2023-07-20T04:40:49;19.50;99.90
28520;DHT22;15732;48.534;20.382;2023-07-20T04:43:17;19.40;99.90
28520;DHT22;15732;48.534;20.382;2023-07-20T04:45:44;19.40;99.90
28520;DHT22;15732;48.534;20.382;2023-07-20T04:48:14;19.40;99.90
28520;DHT22;15732;48.534;20.382;2023-07-20T04:50:42;19.50;99.90
28520;DHT22;15732;48.534;20.382;2023-07-20T04:53:10;19.60;99.90
28520;DHT22;15732;48.534;20.382;2023-07-20T04:55:38;19.60;99.90
28520;DHT22;15732;48.534;20.382;2023-07-20T04:58:06;19.70;99.90
28520;DHT22;15732;48.534;20.382;2023-07-20T05:00:33;19.90;99.90
28520;DHT22;15732;48.534;20.382;2023-07-20T05:03:00;19.90;99.90
28520;DHT22;15732;48.534;20.382;2023-07-20T05:05:28;19.90;99.90
28520;DHT22;15732;48.534;20.382;2023-07-20T05:07:55;20.00;99.90
28520;DHT22;15732;48.534;20.382;2023-07-20T05:10:23;20.00;99.90
28520;DHT22;15732;48.534;20.382;2023-07-20T05:12:50;20.00;99.90
28520;DHT22;15732;48.534;20.382;2023-07-20T05:15:18;20.20;99.90
28520;DHT22;15732;48.534;20.382;2023-07-20T05:17:45;20.20;99.90
28520;DHT22;15732;48.534;20.382;2023-07-20T05:20:13;20.10;99.90
28520;DHT22;15732;48.534;20.382;2023-07-20T05:22:40;20.10;99.90
28520;DHT22;15732;48.534;20.382;2023-07-20T05:25:08;20.20;99.90
28520;DHT22;15732;48.534;20.382;2023-07-20T05:27:54;20.30;99.90
28520;DHT22;15732;48.534;20.382;2023-07-20T05:30:22;20.50;99.90
28520;DHT22;15732;48.534;20.382;2023-07-20T05:32:49;20.80;99.90
28520;DHT22;15732;48.534;20.382;2023-07-20T05:35:18;20.90;99.90
28520;DHT22;15732;48.534;20.382;2023-07-20T05:37:45;21.10;99.90
28520;DHT22;15732;48.534;20.382;2023-07-20T05:40:14;21.30;99.90
28520;DHT22;15732;48.534;20.382;2023-07-20T05:42:41;21.50;99.90
28520;DHT22;15732;48.534;20.382;2023-07-20T05:45:09;21.60;99.90
28520;DHT22;15732;48.534;20.382;2023-07-20T05:47:37;21.90;99.90
28520;DHT22;15732;48.534;20.382;2023-07-20T05:50:05;22.00;99.90
28520;DHT22;15732;48.534;20.382;2023-07-20T05:52:33;22.20;99.90
28520;DHT22;15732;48.534;20.382;2023-07-20T05:55:01;22.40;99.90
28520;DHT22;15732;48.534;20.382;2023-07-20T05:57:28;22.50;99.90
28520;DHT22;15732;48.534;20.382;2023-07-20T05:59:55;22.70;99.90
28520;DHT22;15732;48.534;20.382;2023-07-20T06:02:22;22.80;99.90
28520;DHT22;15732;48.534;20.382;2023-07-20T06:04:49;23.00;99.90
28520;DHT22;15732;48.534;20.382;2023-07-20T06:07:17;23.10;99.90
28520;DHT22;15732;48.534;20.382;2023-07-20T06:09:44;23.20;99.90
28520;DHT22;15732;48.534;20.382;2023-07-20T06:12:11;23.30;99.90
28520;DHT22;15732;48.534;20.382;2023-07-20T06:14:39;23.50;99.90
28520;DHT22;15732;48.534;20.382;2023-07-20T06:17:06;23.60;99.90
28520;DHT22;15732;48.534;20.382;2023-07-20T06:19:34;23.70;99.90
28520;DHT22;15732;48.534;20.382;2023-07-20T06:22:01;23.80;99.90
28520;DHT22;15732;48.534;20.382;2023-07-20T06:24:29;23.80;99.90
28520;DHT22;15732;48.534;20.382;2023-07-20T06:26:56;23.80;99.90
28520;DHT22;15732;48.534;20.382;2023-07-20T06:29:23;23.80;99.90
28520;DHT22;15732;48.534;20.382;2023-07-20T06:31:51;23.80;99.90
28520;DHT22;15732;48.534;20.382;2023-07-20T06:34:18;23.90;99.90
28520;DHT22;15732;48.534;20.382;2023-07-20T06:36:46;24.00;99.90
28520;DHT22;15732;48.534;20.382;2023-07-20T06:39:13;24.20;99.90
28520;DHT22;15732;48.534;20.382;2023-07-20T06:41:45;24.30;99.90
28520;DHT22;15732;48.534;20.382;2023-07-20T06:44:12;24.30;99.90
28520;DHT22;15732;48.534;20.382;2023-07-20T06:46:39;24.30;99.90
28520;DHT22;15732;48.534;20.382;2023-07-20T06:49:06;24.40;99.90
28520;DHT22;15732;48.534;20.382;2023-07-20T06:51:34;24.50;99.90
28520;DHT22;15732;48.534;20.382;2023-07-20T06:54:01;24.60;99.90
28520;DHT22;15732;48.534;20.382;2023-07-20T06:56:31;24.50;99.90
28520;DHT22;15732;48.534;20.382;2023-07-20T06:58:58;24.60;99.90
28520;DHT22;15732;48.534;20.382;2023-07-20T07:01:25;24.70;99.90
28520;DHT22;15732;48.534;20.382;2023-07-20T07:03:52;24.80;99.90
28520;DHT22;15732;48.534;20.382;2023-07-20T07:06:20;25.00;99.90
28520;DHT22;15732;48.534;20.382;2023-07-20T07:08:49;25.20;99.90
28520;DHT22;15732;48.534;20.382;2023-07-20T07:11:16;25.40;99.90
28520;DHT22;15732;48.534;20.382;2023-07-20T07:13:43;25.60;99.90
28520;DHT22;15732;48.534;20.382;2023-07-20T07:16:13;25.70;99.90
28520;DHT22;15732;48.534;20.382;2023-07-20T07:18:45;25.90;99.90
28520;DHT22;15732;48.534;20.382;2023-07-20T07:21:16;26.00;99.90
28520;DHT22;15732;48.534;20.382;2023-07-20T07:23:43;26.10;99.90
28520;DHT22;15732;48.534;20.382;2023-07-20T07:26:11;26.20;99.90
28520;DHT22;15732;48.534;20.382;2023-07-20T07:28:38;26.30;99.90
28520;DHT22;15732;48.534;20.382;2023-07-20T07:31:05;26.40;99.90
28520;DHT22;15732;48.534;20.382;2023-07-20T07:33:33;26.40;99.90
28520;DHT22;15732;48.534;20.382;2023-07-20T07:36:01;26.50;99.90
28520;DHT22;15732;48.534;20.382;2023-07-20T07:38:28;26.60;99.90
28520;DHT22;15732;48.534;20.382;2023-07-20T07:40:55;26.50;99.90
28520;DHT22;15732;48.534;20.382;2023-07-20T07:43:23;26.60;99.90
28520;DHT22;15732;48.534;20.382;2023-07-20T07:45:53;26.60;99.90
28520;DHT22;15732;48.534;20.382;2023-07-20T07:48:20;26.70;99.90
28520;DHT22;15732;48.534;20.382;2023-07-20T07:50:48;26.80;99.90
28520;DHT22;15732;48.534;20.382;2023-07-20T07:53:16;26.80;99.90
28520;DHT22;15732;48.534;20.382;2023-07-20T07:55:49;26.80;99.90
28520;DHT22;15732;48.534;20.382;2023-07-20T07:58:20;26.80;99.90
28520;DHT22;15732;48.534;20.382;2023-07-20T08:00:48;26.80;99.90
28520;DHT22;15732;48.534;20.382;2023-07-20T08:03:15;26.80;99.90
28520;DHT22;15732;48.534;20.382;2023-07-20T08:05:42;26.80;99.90
28520;DHT22;15732;48.534;20.382;2023-07-20T08:08:10;26.80;99.90
28520;DHT22;15732;48.534;20.382;2023-07-20T08:10:37;26.90;99.90
28520;DHT22;15732;48.534;20.382;2023-07-20T08:13:04;26.90;99.90
28520;DHT22;15732;48.534;20.382;2023-07-20T08:15:31;26.90;99.90
28520;DHT22;15732;48.534;20.382;2023-07-20T08:17:59;26.90;99.90
28520;DHT22;15732;48.534;20.382;2023-07-20T08:20:26;26.90;99.90
28520;DHT22;15732;48.534;20.382;2023-07-20T08:22:58;26.90;99.90
28520;DHT22;15732;48.534;20.382;2023-07-20T08:25:26;26.90;99.90
28520;DHT22;15732;48.534;20.382;2023-07-20T08:27:53;27.00;99.90
28520;DHT22;15732;48.534;20.382;2023-07-20T08:30:23;27.00;99.90
28520;DHT22;15732;48.534;20.382;2023-07-20T08:32:54;27.00;99.90
28520;DHT22;15732;48.534;20.382;2023-07-20T08:35:25;27.10;99.90
28520;DHT22;15732;48.534;20.382;2023-07-20T08:37:53;27.20;99.90
28520;DHT22;15732;48.534;20.382;2023-07-20T08:40:20;27.30;99.90
28520;DHT22;15732;48.534;20.382;2023-07-20T08:42:48;27.40;99.90
28520;DHT22;15732;48.534;20.382;2023-07-20T08:45:20;27.40;99.90
28520;DHT22;15732;48.534;20.382;2023-07-20T08:47:49;27.40;99.90
28520;DHT22;15732;48.534;20.382;2023-07-20T08:50:16;27.50;99.90
28520;DHT22;15732;48.534;20.382;2023-07-20T08:52:43;27.50;99.90
28520;DHT22;15732;48.534;20.382;2023-07-20T08:55:10;27.60;99.90
28520;DHT22;15732;48.534;20.382;2023-07-20T08:57:38;27.60;99.90
28520;DHT22;15732;48.534;20.382;2023-07-20T09:00:08;27.60;99.90
28520;DHT22;15732;48.534;20.382;2023-07-20T09:02:39;27.60;99.90
28520;DHT22;15732;48.534;20.382;2023-07-20T09:05:08;27.60;99.90
28520;DHT22;15732;48.534;20.382;2023-07-20T09:07:40;27.70;99.90
28520;DHT22;15732;48.534;20.382;2023-07-20T09:10:09;27.70;99.90
28520;DHT22;15732;48.534;20.382;2023-07-20T09:12:42;27.70;99.90
28520;DHT22;15732;48.534;20.382;2023-07-20T09:15:11;27.80;99.90
28520;DHT22;15732;48.534;20.382;2023-07-20T09:17:38;27.80;99.90
28520;DHT22;15732;48.534;20.382;2023-07-20T09:20:06;27.90;99.90
28520;DHT22;15732;48.534;20.382;2023-07-20T09:22:56;27.90;99.90
28520;DHT22;15732;48.534;20.382;2023-07-20T09:25:24;28.00;99.90
28520;DHT22;15732;48.534;20.382;2023-07-20T09:27:51;28.00;99.90
28520;DHT22;15732;48.534;20.382;2023-07-20T09:30:18;28.00;99.90
28520;DHT22;15732;48.534;20.382;2023-07-20T09:32:47;28.10;99.90
28520;DHT22;15732;48.534;20.382;2023-07-20T09:35:19;28.10;99.90
28520;DHT22;15732;48.534;20.382;2023-07-20T09:37:58;28.10;99.90
28520;DHT22;15732;48.534;20.382;2023-07-20T09:40:26;28.30;99.90
28520;DHT22;15732;48.534;20.382;2023-07-20T09:42:54;28.30;99.90
28520;DHT22;15732;48.534;20.382;2023-07-20T09:45:43;28.30;99.90
28520;DHT22;15732;48.534;20.382;2023-07-20T09:48:11;28.40;99.90
28520;DHT22;15732;48.534;20.382;2023-07-20T09:50:48;28.40;99.90
28520;DHT22;15732;48.534;20.382;2023-07-20T09:53:17;28.50;99.90
28520;DHT22;15732;48.534;20.382;2023-07-20T09:55:45;28.60;99.90
28520;DHT22;15732;48.534;20.382;2023-07-20T09:58:13;28.60;99.90
28520;DHT22;15732;48.534;20.382;2023-07-20T10:00:41;28.70;99.90
28520;DHT22;15732;48.534;20.382;2023-07-20T10:03:16;28.70;99.90
28520;DHT22;15732;48.534;20.382;2023-07-20T10:05:49;28.80;99.90
28520;DHT22;15732;48.534;20.382;2023-07-20T10:08:19;28.70;99.90
28520;DHT22;15732;48.534;20.382;2023-07-20T10:10:48;28.70;99.90
28520;DHT22;15732;48.534;20.382;2023-07-20T10:13:38;28.60;99.90
28520;DHT22;15732;48.534;20.382;2023-07-20T10:16:15;28.50;99.90
28520;DHT22;15732;48.534;20.382;2023-07-20T10:21:31;28.50;99.90
28520;DHT22;15732;48.534;20.382;2023-07-20T10:23:59;28.60;99.90
28520;DHT22;15732;48.534;20.382;2023-07-20T10:26:27;28.70;99.90
28520;DHT22;15732;48.534;20.382;2023-07-20T10:28:55;28.80;99.90
28520;DHT22;15732;48.534;20.382;2023-07-20T10:31:24;28.90;99.90
28520;DHT22;15732;48.534;20.382;2023-07-20T10:33:53;28.90;99.90
28520;DHT22;15732;48.534;20.382;2023-07-20T10:36:27;28.80;99.90
28520;DHT22;15732;48.534;20.382;2023-07-20T10:38:57;28.80;99.90
28520;DHT22;15732;48.534;20.382;2023-07-20T10:41:35;28.70;99.90
28520;DHT22;15732;48.534;20.382;2023-07-20T10:44:09;28.70;99.90
28520;DHT22;15732;48.534;20.382;2023-07-20T10:49:07;28.80;99.90
28520;DHT22;15732;48.534;20.382;2023-07-20T10:56:44;29.00;99.90
28520;DHT22;15732;48.534;20.382;2023-07-20T11:01:58;29.00;99.90
28520;DHT22;15732;48.534;20.382;2023-07-20T11:04:44;29.00;99.90
28520;DHT22;15732;48.534;20.382;2023-07-20T11:07:21;28.90;99.90
28520;DHT22;15732;48.534;20.382;2023-07-20T11:10:13;28.90;99.90
28520;DHT22;15732;48.534;20.382;2023-07-20T11:15:46;29.00;99.90
28520;DHT22;15732;48.534;20.382;2023-07-20T11:18:13;29.00;99.90
28520;DHT22;15732;48.534;20.382;2023-07-20T11:20:41;29.00;99.90
28520;DHT22;15732;48.534;20.382;2023-07-20T11:23:08;29.00;99.90
28520;DHT22;15732;48.534;20.382;2023-07-20T11:25:39;29.00;99.90
28520;DHT22;15732;48.534;20.382;2023-07-20T11:28:07;29.00;99.90
28520;DHT22;15732;48.534;20.382;2023-07-20T11:30:37;29.00;99.90
28520;DHT22;15732;48.534;20.382;2023-07-20T11:33:10;29.00;99.90
28520;DHT22;15732;48.534;20.382;2023-07-20T11:35:44;29.10;99.90
28520;DHT22;15732;48.534;20.382;2023-07-20T11:38:13;29.10;99.90
28520;DHT22;15732;48.534;20.382;2023-07-20T11:40:44;29.10;99.90
28520;DHT22;15732;48.534;20.382;2023-07-20T11:43:14;29.10;99.90
28520;DHT22;15732;48.534;20.382;2023-07-20T11:45:42;29.10;99.90
28520;DHT22;15732;48.534;20.382;2023-07-20T11:48:17;29.10;99.90
28520;DHT22;15732;48.534;20.382;2023-07-20T11:51:01;29.10;99.90
28520;DHT22;15732;48.534;20.382;2023-07-20T11:53:29;29.10;99.90
28520;DHT22;15732;48.534;20.382;2023-07-20T11:55:56;29.10;99.90
28520;DHT22;15732;48.534;20.382;2023-07-20T11:58:24;29.10;99.90
28520;DHT22;15732;48.534;20.382;2023-07-20T12:00:51;29.10;99.90
28520;DHT22;15732;48.534;20.382;2023-07-20T12:03:18;29.00;99.90
28520;DHT22;15732;48.534;20.382;2023-07-20T12:05:45;29.10;99.90
28520;DHT22;15732;48.534;20.382;2023-07-20T12:08:12;29.10;99.90
28520;DHT22;15732;48.534;20.382;2023-07-20T12:10:40;29.10;99.90
28520;DHT22;15732;48.534;20.382;2023-07-20T12:13:10;29.10;99.90
28520;DHT22;15732;48.534;20.382;2023-07-20T12:15:40;29.00;99.90
28520;DHT22;15732;48.534;20.382;2023-07-20T12:18:11;28.90;99.90
28520;DHT22;15732;48.534;20.382;2023-07-20T12:20:39;28.80;99.90
28520;DHT22;15732;48.534;20.382;2023-07-20T12:23:13;28.70;99.90
28520;DHT22;15732;48.534;20.382;2023-07-20T12:25:45;28.60;99.90
28520;DHT22;15732;48.534;20.382;2023-07-20T12:28:16;28.60;99.90
28520;DHT22;15732;48.534;20.382;2023-07-20T12:30:45;28.50;99.90
28520;DHT22;15732;48.534;20.382;2023-07-20T12:33:12;28.50;99.90
28520;DHT22;15732;48.534;20.382;2023-07-20T12:35:42;28.50;99.90
28520;DHT22;15732;48.534;20.382;2023-07-20T12:38:09;28.50;99.90
28520;DHT22;15732;48.534;20.382;2023-07-20T12:40:36;28.60;99.90
28520;DHT22;15732;48.534;20.382;2023-07-20T12:43:03;28.60;99.90
28520;DHT22;15732;48.534;20.382;2023-07-20T12:45:33;28.60;99.50
28520;DHT22;15732;48.534;20.382;2023-07-20T12:48:00;28.70;99.90
28520;DHT22;15732;48.534;20.382;2023-07-20T12:50:27;28.70;98.80
28520;DHT22;15732;48.534;20.382;2023-07-20T12:52:54;28.70;98.80
28520;DHT22;15732;48.534;20.382;2023-07-20T12:55:21;28.70;99.20
28520;DHT22;15732;48.534;20.382;2023-07-20T12:57:48;28.70;99.70
28520;DHT22;15732;48.534;20.382;2023-07-20T13:00:20;28.70;99.90
28520;DHT22;15732;48.534;20.382;2023-07-20T13:02:49;28.70;99.80
28520;DHT22;15732;48.534;20.382;2023-07-20T13:05:16;28.80;98.90
28520;DHT22;15732;48.534;20.382;2023-07-20T13:07:44;28.70;99.20
28520;DHT22;15732;48.534;20.382;2023-07-20T13:10:12;28.80;99.90
28520;DHT22;15732;48.534;20.382;2023-07-20T13:12:43;28.80;99.80
28520;DHT22;15732;48.534;20.382;2023-07-20T13:15:11;28.80;99.90
28520;DHT22;15732;48.534;20.382;2023-07-20T13:17:38;28.80;99.90
28520;DHT22;15732;48.534;20.382;2023-07-20T13:20:10;28.80;99.50
28520;DHT22;15732;48.534;20.382;2023-07-20T13:22:37;28.80;98.60
28520;DHT22;15732;48.534;20.382;2023-07-20T13:25:06;28.80;97.70
28520;DHT22;15732;48.534;20.382;2023-07-20T13:27:35;28.80;98.40
28520;DHT22;15732;48.534;20.382;2023-07-20T13:30:04;28.90;97.20
28520;DHT22;15732;48.534;20.382;2023-07-20T13:32:34;28.80;97.40
28520;DHT22;15732;48.534;20.382;2023-07-20T13:35:01;28.90;98.50
28520;DHT22;15732;48.534;20.382;2023-07-20T13:37:28;28.90;96.50
28520;DHT22;15732;48.534;20.382;2023-07-20T13:39:56;28.90;98.30
28520;DHT22;15732;48.534;20.382;2023-07-20T13:42:23;28.90;99.40
28520;DHT22;15732;48.534;20.382;2023-07-20T13:44:51;28.90;99.20
28520;DHT22;15732;48.534;20.382;2023-07-20T13:47:18;28.90;99.10
28520;DHT22;15732;48.534;20.382;2023-07-20T13:49:46;28.90;97.70
28520;DHT22;15732;48.534;20.382;2023-07-20T13:52:13;28.90;98.30
28520;DHT22;15732;48.534;20.382;2023-07-20T13:54:40;28.90;98.30
28520;DHT22;15732;48.534;20.382;2023-07-20T13:57:07;28.80;97.70
28520;DHT22;15732;48.534;20.382;2023-07-20T13:59:34;28.80;99.30
28520;DHT22;15732;48.534;20.382;2023-07-20T14:02:02;28.80;98.00
28520;DHT22;15732;48.534;20.382;2023-07-20T14:04:30;28.80;98.30
28520;DHT22;15732;48.534;20.382;2023-07-20T14:06:57;28.70;95.80
28520;DHT22;15732;48.534;20.382;2023-07-20T14:09:24;28.70;96.70
28520;DHT22;15732;48.534;20.382;2023-07-20T14:11:51;28.70;98.40
28520;DHT22;15732;48.534;20.382;2023-07-20T14:14:18;28.70;98.90
28520;DHT22;15732;48.534;20.382;2023-07-20T14:16:46;28.70;98.90
28520;DHT22;15732;48.534;20.382;2023-07-20T14:19:13;28.60;98.50
28520;DHT22;15732;48.534;20.382;2023-07-20T14:21:40;28.60;97.90
28520;DHT22;15732;48.534;20.382;2023-07-20T14:24:07;28.60;98.80
28520;DHT22;15732;48.534;20.382;2023-07-20T14:26:35;28.60;97.40
28520;DHT22;15732;48.534;20.382;2023-07-20T14:29:02;28.60;96.80
28520;DHT22;15732;48.534;20.382;2023-07-20T14:31:29;28.60;98.00
28520;DHT22;15732;48.534;20.382;2023-07-20T14:33:57;28.50;96.90
28520;DHT22;15732;48.534;20.382;2023-07-20T14:36:24;28.50;96.40
28520;DHT22;15732;48.534;20.382;2023-07-20T14:38:51;28.60;96.60
28520;DHT22;15732;48.534;20.382;2023-07-20T14:41:18;28.50;96.80
28520;DHT22;15732;48.534;20.382;2023-07-20T14:43:47;28.50;96.80
28520;DHT22;15732;48.534;20.382;2023-07-20T14:46:15;28.50;98.40
28520;DHT22;15732;48.534;20.382;2023-07-20T14:48:46;28.50;98.50
28520;DHT22;15732;48.534;20.382;2023-07-20T14:51:13;28.50;98.70
28520;DHT22;15732;48.534;20.382;2023-07-20T14:53:44;28.50;97.90
28520;DHT22;15732;48.534;20.382;2023-07-20T14:56:12;28.50;97.80
28520;DHT22;15732;48.534;20.382;2023-07-20T14:58:39;28.40;96.50
28520;DHT22;15732;48.534;20.382;2023-07-20T15:01:06;28.50;97.10
28520;DHT22;15732;48.534;20.382;2023-07-20T15:03:34;28.40;99.90
28520;DHT22;15732;48.534;20.382;2023-07-20T15:06:02;28.30;99.90
28520;DHT22;15732;48.534;20.382;2023-07-20T15:08:30;28.20;99.90
28520;DHT22;15732;48.534;20.382;2023-07-20T15:10:57;28.10;99.90
28520;DHT22;15732;48.534;20.382;2023-07-20T15:13:24;27.90;99.90
28520;DHT22;15732;48.534;20.382;2023-07-20T15:15:51;27.90;99.90
28520;DHT22;15732;48.534;20.382;2023-07-20T15:18:19;27.90;99.90
28520;DHT22;15732;48.534;20.382;2023-07-20T15:20:51;27.90;99.90
28520;DHT22;15732;48.534;20.382;2023-07-20T15:23:20;27.80;99.90
28520;DHT22;15732;48.534;20.382;2023-07-20T15:25:47;27.80;99.90
28520;DHT22;15732;48.534;20.382;2023-07-20T15:28:14;27.70;99.90
28520;DHT22;15732;48.534;20.382;2023-07-20T15:30:42;27.60;99.90
28520;DHT22;15732;48.534;20.382;2023-07-20T15:33:09;27.60;99.90
28520;DHT22;15732;48.534;20.382;2023-07-20T15:35:36;27.50;99.90
28520;DHT22;15732;48.534;20.382;2023-07-20T15:38:04;27.50;99.90
28520;DHT22;15732;48.534;20.382;2023-07-20T15:40:33;27.50;99.90
28520;DHT22;15732;48.534;20.382;2023-07-20T15:43:00;27.40;99.90
28520;DHT22;15732;48.534;20.382;2023-07-20T15:45:28;27.30;99.90
28520;DHT22;15732;48.534;20.382;2023-07-20T15:47:55;27.30;99.90